sensor_id;sensor_type;location;lat;lon;timestamp;P1;durP1;ratioP1;P2;durP2;ratioP2
22851;SDS011;11592;45.460;9.240;2023-02-02T00:01:58;9.80;;;4.10;;
22851;SDS011;11592;45.460;9.240;2023-02-02T00:04:28;14.75;;;3.88;;
22851;SDS011;11592;45.460;9.240;2023-02-02T00:06:56;10.27;;;3.80;;
22851;SDS011;11592;45.460;9.240;2023-02-02T00:09:25;12.40;;;4.00;;
22851;SDS011;11592;45.460;9.240;2023-02-02T00:11:57;15.10;;;4.75;;
22851;SDS011;11592;45.460;9.240;2023-02-02T00:14:25;12.48;;;4.13;;
22851;SDS011;11592;45.460;9.240;2023-02-02T00:16:52;14.65;;;4.68;;
22851;SDS011;11592;45.460;9.240;2023-02-02T00:19:21;16.73;;;4.20;;
22851;SDS011;11592;45.460;9.240;2023-02-02T00:21:51;8.10;;;3.80;;
22851;SDS011;11592;45.460;9.240;2023-02-02T00:24:19;10.77;;;4.30;;
22851;SDS011;11592;45.460;9.240;2023-02-02T00:26:57;19.17;;;4.47;;
22851;SDS011;11592;45.460;9.240;2023-02-02T00:29:26;13.38;;;4.03;;
22851;SDS011;11592;45.460;9.240;2023-02-02T00:31:54;11.13;;;4.30;;
22851;SDS011;11592;45.460;9.240;2023-02-02T00:34:21;19.40;;;4.55;;
22851;SDS011;11592;45.460;9.240;2023-02-02T00:36:48;14.38;;;4.47;;
22851;SDS011;11592;45.460;9.240;2023-02-02T00:39:18;9.45;;;4.03;;
22851;SDS011;11592;45.460;9.240;2023-02-02T00:41:51;11.43;;;4.30;;
22851;SDS011;11592;45.460;9.240;2023-02-02T00:44:18;9.60;;;4.45;;
22851;SDS011;11592;45.460;9.240;2023-02-02T00:47:03;10.93;;;3.90;;
22851;SDS011;11592;45.460;9.240;2023-02-02T00:49:30;10.02;;;3.67;;
22851;SDS011;11592;45.460;9.240;2023-02-02T00:51:57;12.45;;;4.53;;
22851;SDS011;11592;45.460;9.240;2023-02-02T00:54:25;10.43;;;4.20;;
22851;SDS011;11592;45.460;9.240;2023-02-02T00:56:53;10.20;;;4.63;;
22851;SDS011;11592;45.460;9.240;2023-02-02T00:59:19;9.38;;;4.43;;
22851;SDS011;11592;45.460;9.240;2023-02-02T01:01:46;9.27;;;4.05;;
22851;SDS011;11592;45.460;9.240;2023-02-02T01:04:13;12.15;;;4.35;;
22851;SDS011;11592;45.460;9.240;2023-02-02T01:06:40;14.98;;;4.38;;
22851;SDS011;11592;45.460;9.240;2023-02-02T01:09:07;14.43;;;3.65;;
22851;SDS011;11592;45.460;9.240;2023-02-02T01:11:34;11.50;;;4.07;;
22851;SDS011;11592;45.460;9.240;2023-02-02T01:14:01;13.38;;;4.32;;
22851;SDS011;11592;45.460;9.240;2023-02-02T01:16:28;13.65;;;5.20;;
22851;SDS011;11592;45.460;9.240;2023-02-02T01:18:55;12.80;;;4.90;;
22851;SDS011;11592;45.460;9.240;2023-02-02T01:21:22;12.45;;;4.78;;
22851;SDS011;11592;45.460;9.240;2023-02-02T01:23:49;12.90;;;4.65;;
22851;SDS011;11592;45.460;9.240;2023-02-02T01:26:16;9.82;;;5.07;;
22851;SDS011;11592;45.460;9.240;2023-02-02T01:28:43;15.02;;;4.90;;
22851;SDS011;11592;45.460;9.240;2023-02-02T01:31:11;11.00;;;4.25;;
22851;SDS011;11592;45.460;9.240;2023-02-02T01:33:40;11.93;;;4.40;;
22851;SDS011;11592;45.460;9.240;2023-02-02T01:36:10;12.27;;;4.60;;
22851;SDS011;11592;45.460;9.240;2023-02-02T01:38:39;15.02;;;4.60;;
22851;SDS011;11592;45.460;9.240;2023-02-02T01:41:06;12.05;;;4.90;;
22851;SDS011;11592;45.460;9.240;2023-02-02T01:46:18;11.57;;;4.97;;
22851;SDS011;11592;45.460;9.240;2023-02-02T01:49:01;8.32;;;4.28;;
22851;SDS011;11592;45.460;9.240;2023-02-02T01:51:35;9.55;;;4.07;;
22851;SDS011;11592;45.460;9.240;2023-02-02T01:54:08;12.25;;;4.75;;
22851;SDS011;11592;45.460;9.240;2023-02-02T01:56:40;10.68;;;4.20;;
22851;SDS011;11592;45.460;9.240;2023-02-02T01:59:12;15.38;;;4.75;;
22851;SDS011;11592;45.460;9.240;2023-02-02T02:01:41;13.70;;;4.47;;
22851;SDS011;11592;45.460;9.240;2023-02-02T02:04:10;12.95;;;4.72;;
22851;SDS011;11592;45.460;9.240;2023-02-02T02:06:36;16.20;;;4.82;;
22851;SDS011;11592;45.460;9.240;2023-02-02T02:09:04;8.63;;;4.30;;
22851;SDS011;11592;45.460;9.240;2023-02-02T02:11:32;18.10;;;4.97;;
22851;SDS011;11592;45.460;9.240;2023-02-02T02:14:01;14.95;;;5.07;;
22851;SDS011;11592;45.460;9.240;2023-02-02T02:28:50;14.50;;;5.63;;
22851;SDS011;11592;45.460;9.240;2023-02-02T02:34:21;15.00;;;5.90;;
22851;SDS011;11592;45.460;9.240;2023-02-02T02:37:10;13.90;;;5.75;;
22851;SDS011;11592;45.460;9.240;2023-02-02T02:39:54;13.10;;;6.00;;
22851;SDS011;11592;45.460;9.240;2023-02-02T02:42:29;16.80;;;6.28;;
22851;SDS011;11592;45.460;9.240;2023-02-02T02:44:59;17.55;;;6.25;;
22851;SDS011;11592;45.460;9.240;2023-02-02T02:47:29;16.80;;;5.90;;
22851;SDS011;11592;45.460;9.240;2023-02-02T02:49:57;16.45;;;6.20;;
22851;SDS011;11592;45.460;9.240;2023-02-02T02:52:24;12.05;;;5.88;;
22851;SDS011;11592;45.460;9.240;2023-02-02T02:54:54;19.98;;;6.88;;
22851;SDS011;11592;45.460;9.240;2023-02-02T02:57:27;13.02;;;6.00;;
22851;SDS011;11592;45.460;9.240;2023-02-02T03:00:02;17.40;;;6.38;;
22851;SDS011;11592;45.460;9.240;2023-02-02T03:05:32;10.95;;;5.07;;
22851;SDS011;11592;45.460;9.240;2023-02-02T03:10:53;13.95;;;5.55;;
22851;SDS011;11592;45.460;9.240;2023-02-02T03:13:21;11.68;;;5.40;;
22851;SDS011;11592;45.460;9.240;2023-02-02T03:15:49;12.00;;;5.45;;
22851;SDS011;11592;45.460;9.240;2023-02-02T03:18:16;15.35;;;5.45;;
22851;SDS011;11592;45.460;9.240;2023-02-02T03:20:45;20.52;;;5.97;;
22851;SDS011;11592;45.460;9.240;2023-02-02T03:23:12;15.88;;;5.55;;
22851;SDS011;11592;45.460;9.240;2023-02-02T03:25:39;17.73;;;5.78;;
22851;SDS011;11592;45.460;9.240;2023-02-02T03:28:06;13.85;;;5.85;;
22851;SDS011;11592;45.460;9.240;2023-02-02T03:30:33;13.57;;;5.63;;
22851;SDS011;11592;45.460;9.240;2023-02-02T03:33:01;17.80;;;6.28;;
22851;SDS011;11592;45.460;9.240;2023-02-02T03:35:28;13.32;;;5.45;;
22851;SDS011;11592;45.460;9.240;2023-02-02T03:37:56;11.68;;;6.03;;
22851;SDS011;11592;45.460;9.240;2023-02-02T03:40:22;14.85;;;6.00;;
22851;SDS011;11592;45.460;9.240;2023-02-02T03:42:49;14.25;;;6.35;;
22851;SDS011;11592;45.460;9.240;2023-02-02T03:45:16;12.80;;;5.95;;
22851;SDS011;11592;45.460;9.240;2023-02-02T03:47:43;14.75;;;5.88;;
22851;SDS011;11592;45.460;9.240;2023-02-02T03:50:10;14.20;;;6.18;;
22851;SDS011;11592;45.460;9.240;2023-02-02T03:52:37;15.50;;;6.35;;
22851;SDS011;11592;45.460;9.240;2023-02-02T03:55:04;18.33;;;6.65;;
22851;SDS011;11592;45.460;9.240;2023-02-02T03:57:31;13.52;;;6.50;;
22851;SDS011;11592;45.460;9.240;2023-02-02T03:59:58;13.60;;;6.30;;
22851;SDS011;11592;45.460;9.240;2023-02-02T04:02:25;16.67;;;6.60;;
22851;SDS011;11592;45.460;9.240;2023-02-02T04:04:52;13.23;;;6.40;;
22851;SDS011;11592;45.460;9.240;2023-02-02T04:07:19;15.30;;;5.90;;
22851;SDS011;11592;45.460;9.240;2023-02-02T04:09:45;16.30;;;6.68;;
22851;SDS011;11592;45.460;9.240;2023-02-02T04:12:12;19.55;;;6.30;;
22851;SDS011;11592;45.460;9.240;2023-02-02T04:14:39;16.17;;;6.25;;
22851;SDS011;11592;45.460;9.240;2023-02-02T04:17:06;14.38;;;5.80;;
22851;SDS011;11592;45.460;9.240;2023-02-02T04:19:32;17.45;;;6.18;;
22851;SDS011;11592;45.460;9.240;2023-02-02T04:21:59;10.90;;;5.75;;
22851;SDS011;11592;45.460;9.240;2023-02-02T04:24:26;14.02;;;6.47;;
22851;SDS011;11592;45.460;9.240;2023-02-02T04:26:52;17.38;;;6.22;;
22851;SDS011;11592;45.460;9.240;2023-02-02T04:29:19;16.23;;;6.13;;
22851;SDS011;11592;45.460;9.240;2023-02-02T04:31:46;14.57;;;6.70;;
22851;SDS011;11592;45.460;9.240;2023-02-02T04:34:13;20.88;;;6.70;;
22851;SDS011;11592;45.460;9.240;2023-02-02T04:36:39;14.45;;;6.55;;
22851;SDS011;11592;45.460;9.240;2023-02-02T04:39:08;16.98;;;6.93;;
22851;SDS011;11592;45.460;9.240;2023-02-02T04:41:36;17.25;;;6.80;;
22851;SDS011;11592;45.460;9.240;2023-02-02T04:44:03;18.48;;;6.88;;
22851;SDS011;11592;45.460;9.240;2023-02-02T04:46:32;20.65;;;7.35;;
22851;SDS011;11592;45.460;9.240;2023-02-02T04:48:59;14.98;;;6.80;;
22851;SDS011;11592;45.460;9.240;2023-02-02T04:51:25;20.85;;;8.15;;
22851;SDS011;11592;45.460;9.240;2023-02-02T04:53:52;14.82;;;7.25;;
22851;SDS011;11592;45.460;9.240;2023-02-02T04:56:19;23.40;;;7.80;;
22851;SDS011;11592;45.460;9.240;2023-02-02T04:58:45;20.17;;;7.28;;
22851;SDS011;11592;45.460;9.240;2023-02-02T05:01:17;16.30;;;7.10;;
22851;SDS011;11592;45.460;9.240;2023-02-02T05:03:44;15.88;;;7.50;;
22851;SDS011;11592;45.460;9.240;2023-02-02T05:06:12;20.15;;;7.72;;
22851;SDS011;11592;45.460;9.240;2023-02-02T05:08:41;17.50;;;7.15;;
22851;SDS011;11592;45.460;9.240;2023-02-02T05:11:09;19.92;;;7.53;;
22851;SDS011;11592;45.460;9.240;2023-02-02T05:13:37;19.58;;;7.63;;
22851;SDS011;11592;45.460;9.240;2023-02-02T05:16:04;21.75;;;8.05;;
22851;SDS011;11592;45.460;9.240;2023-02-02T05:18:32;16.98;;;7.57;;
22851;SDS011;11592;45.460;9.240;2023-02-02T05:20:59;16.67;;;7.80;;
22851;SDS011;11592;45.460;9.240;2023-02-02T05:23:26;15.50;;;7.07;;
22851;SDS011;11592;45.460;9.240;2023-02-02T05:25:54;23.88;;;7.97;;
22851;SDS011;11592;45.460;9.240;2023-02-02T05:28:21;17.33;;;7.28;;
22851;SDS011;11592;45.460;9.240;2023-02-02T05:30:49;16.10;;;6.63;;
22851;SDS011;11592;45.460;9.240;2023-02-02T05:33:16;20.83;;;7.45;;
22851;SDS011;11592;45.460;9.240;2023-02-02T05:35:46;15.23;;;6.38;;
22851;SDS011;11592;45.460;9.240;2023-02-02T05:38:14;16.67;;;6.25;;
22851;SDS011;11592;45.460;9.240;2023-02-02T05:40:41;13.48;;;6.05;;
22851;SDS011;11592;45.460;9.240;2023-02-02T05:43:08;14.55;;;6.18;;
22851;SDS011;11592;45.460;9.240;2023-02-02T05:45:35;11.00;;;4.85;;
22851;SDS011;11592;45.460;9.240;2023-02-02T05:48:02;11.98;;;5.43;;
22851;SDS011;11592;45.460;9.240;2023-02-02T05:50:29;12.48;;;5.45;;
22851;SDS011;11592;45.460;9.240;2023-02-02T05:52:56;10.43;;;4.55;;
22851;SDS011;11592;45.460;9.240;2023-02-02T05:55:24;12.27;;;4.75;;
22851;SDS011;11592;45.460;9.240;2023-02-02T05:57:51;10.27;;;5.22;;
22851;SDS011;11592;45.460;9.240;2023-02-02T06:00:18;8.95;;;4.43;;
22851;SDS011;11592;45.460;9.240;2023-02-02T06:02:45;11.80;;;4.30;;
22851;SDS011;11592;45.460;9.240;2023-02-02T06:05:12;9.80;;;4.00;;
22851;SDS011;11592;45.460;9.240;2023-02-02T06:07:39;10.73;;;4.00;;
22851;SDS011;11592;45.460;9.240;2023-02-02T06:10:06;13.30;;;5.43;;
22851;SDS011;11592;45.460;9.240;2023-02-02T06:12:33;15.25;;;4.43;;
22851;SDS011;11592;45.460;9.240;2023-02-02T06:15:00;10.55;;;4.13;;
22851;SDS011;11592;45.460;9.240;2023-02-02T06:17:27;10.85;;;4.22;;
22851;SDS011;11592;45.460;9.240;2023-02-02T06:19:53;9.70;;;4.63;;
22851;SDS011;11592;45.460;9.240;2023-02-02T06:22:20;11.55;;;4.13;;
22851;SDS011;11592;45.460;9.240;2023-02-02T06:24:47;11.95;;;4.20;;
22851;SDS011;11592;45.460;9.240;2023-02-02T06:27:14;10.40;;;4.10;;
22851;SDS011;11592;45.460;9.240;2023-02-02T06:29:40;15.32;;;4.55;;
22851;SDS011;11592;45.460;9.240;2023-02-02T06:32:07;8.63;;;4.25;;
22851;SDS011;11592;45.460;9.240;2023-02-02T06:34:34;17.95;;;4.40;;
22851;SDS011;11592;45.460;9.240;2023-02-02T06:37:01;12.77;;;4.28;;
22851;SDS011;11592;45.460;9.240;2023-02-02T06:39:27;11.90;;;4.82;;
22851;SDS011;11592;45.460;9.240;2023-02-02T06:41:54;8.82;;;4.00;;
22851;SDS011;11592;45.460;9.240;2023-02-02T06:44:21;17.50;;;4.28;;
22851;SDS011;11592;45.460;9.240;2023-02-02T06:46:48;16.05;;;4.32;;
22851;SDS011;11592;45.460;9.240;2023-02-02T06:49:15;14.05;;;4.13;;
22851;SDS011;11592;45.460;9.240;2023-02-02T06:51:41;13.15;;;3.85;;
22851;SDS011;11592;45.460;9.240;2023-02-02T06:54:08;9.40;;;3.67;;
22851;SDS011;11592;45.460;9.240;2023-02-02T06:56:35;9.48;;;3.78;;
22851;SDS011;11592;45.460;9.240;2023-02-02T06:59:02;7.88;;;4.00;;
22851;SDS011;11592;45.460;9.240;2023-02-02T07:01:28;10.88;;;4.18;;
22851;SDS011;11592;45.460;9.240;2023-02-02T07:03:56;7.95;;;3.53;;
22851;SDS011;11592;45.460;9.240;2023-02-02T07:06:23;14.20;;;3.67;;
22851;SDS011;11592;45.460;9.240;2023-02-02T07:08:52;8.93;;;4.10;;
22851;SDS011;11592;45.460;9.240;2023-02-02T07:11:27;7.45;;;3.60;;
22851;SDS011;11592;45.460;9.240;2023-02-02T07:13:54;9.18;;;3.40;;
22851;SDS011;11592;45.460;9.240;2023-02-02T07:16:21;7.93;;;3.40;;
22851;SDS011;11592;45.460;9.240;2023-02-02T07:18:48;9.50;;;3.85;;
22851;SDS011;11592;45.460;9.240;2023-02-02T07:21:16;10.85;;;3.95;;
22851;SDS011;11592;45.460;9.240;2023-02-02T07:23:44;13.57;;;4.13;;
22851;SDS011;11592;45.460;9.240;2023-02-02T07:26:12;13.23;;;4.25;;
22851;SDS011;11592;45.460;9.240;2023-02-02T07:28:40;8.00;;;3.58;;
22851;SDS011;11592;45.460;9.240;2023-02-02T07:31:17;11.13;;;4.15;;
22851;SDS011;11592;45.460;9.240;2023-02-02T07:33:47;10.52;;;3.55;;
22851;SDS011;11592;45.460;9.240;2023-02-02T07:36:15;9.70;;;4.00;;
22851;SDS011;11592;45.460;9.240;2023-02-02T07:38:45;11.75;;;5.57;;
22851;SDS011;11592;45.460;9.240;2023-02-02T07:41:13;10.43;;;4.45;;
22851;SDS011;11592;45.460;9.240;2023-02-02T07:43:41;9.90;;;4.43;;
22851;SDS011;11592;45.460;9.240;2023-02-02T07:46:09;10.90;;;4.65;;
22851;SDS011;11592;45.460;9.240;2023-02-02T07:48:37;14.75;;;5.22;;
22851;SDS011;11592;45.460;9.240;2023-02-02T07:51:06;10.65;;;5.43;;
22851;SDS011;11592;45.460;9.240;2023-02-02T07:53:35;13.02;;;5.30;;
22851;SDS011;11592;45.460;9.240;2023-02-02T07:58:31;17.58;;;5.78;;
22851;SDS011;11592;45.460;9.240;2023-02-02T08:01:02;22.80;;;8.15;;
22851;SDS011;11592;45.460;9.240;2023-02-02T08:03:30;16.65;;;8.57;;
22851;SDS011;11592;45.460;9.240;2023-02-02T08:05:58;25.85;;;8.75;;
22851;SDS011;11592;45.460;9.240;2023-02-02T08:08:25;22.48;;;9.98;;
22851;SDS011;11592;45.460;9.240;2023-02-02T08:10:52;24.10;;;10.23;;
22851;SDS011;11592;45.460;9.240;2023-02-02T08:13:19;22.15;;;9.40;;
22851;SDS011;11592;45.460;9.240;2023-02-02T08:15:46;33.08;;;9.95;;
22851;SDS011;11592;45.460;9.240;2023-02-02T08:18:13;25.80;;;9.75;;
22851;SDS011;11592;45.460;9.240;2023-02-02T08:20:40;37.85;;;9.77;;
22851;SDS011;11592;45.460;9.240;2023-02-02T08:23:07;32.55;;;9.63;;
22851;SDS011;11592;45.460;9.240;2023-02-02T08:25:38;19.55;;;8.23;;
22851;SDS011;11592;45.460;9.240;2023-02-02T08:28:05;27.40;;;9.88;;
22851;SDS011;11592;45.460;9.240;2023-02-02T08:30:35;18.58;;;8.90;;
22851;SDS011;11592;45.460;9.240;2023-02-02T08:33:02;20.25;;;8.75;;
22851;SDS011;11592;45.460;9.240;2023-02-02T08:35:29;26.83;;;8.60;;
22851;SDS011;11592;45.460;9.240;2023-02-02T08:37:56;21.10;;;9.20;;
22851;SDS011;11592;45.460;9.240;2023-02-02T08:40:23;20.42;;;8.13;;
22851;SDS011;11592;45.460;9.240;2023-02-02T08:42:53;19.58;;;8.32;;
22851;SDS011;11592;45.460;9.240;2023-02-02T08:45:21;27.85;;;9.43;;
22851;SDS011;11592;45.460;9.240;2023-02-02T08:48:08;23.88;;;8.88;;
22851;SDS011;11592;45.460;9.240;2023-02-02T08:50:38;22.88;;;8.40;;
22851;SDS011;11592;45.460;9.240;2023-02-02T08:53:04;16.63;;;8.02;;
22851;SDS011;11592;45.460;9.240;2023-02-02T08:55:31;19.42;;;7.88;;
22851;SDS011;11592;45.460;9.240;2023-02-02T08:57:58;21.10;;;8.98;;
22851;SDS011;11592;45.460;9.240;2023-02-02T09:00:25;18.65;;;8.30;;
22851;SDS011;11592;45.460;9.240;2023-02-02T09:02:52;14.52;;;7.07;;
22851;SDS011;11592;45.460;9.240;2023-02-02T09:05:20;16.05;;;7.40;;
22851;SDS011;11592;45.460;9.240;2023-02-02T09:07:47;22.67;;;10.95;;
22851;SDS011;11592;45.460;9.240;2023-02-02T09:10:14;18.88;;;8.05;;
22851;SDS011;11592;45.460;9.240;2023-02-02T09:12:41;18.20;;;6.57;;
22851;SDS011;11592;45.460;9.240;2023-02-02T09:15:08;17.90;;;6.53;;
22851;SDS011;11592;45.460;9.240;2023-02-02T09:17:35;15.73;;;6.35;;
22851;SDS011;11592;45.460;9.240;2023-02-02T09:20:02;20.00;;;7.03;;
22851;SDS011;11592;45.460;9.240;2023-02-02T09:22:29;14.40;;;5.70;;
22851;SDS011;11592;45.460;9.240;2023-02-02T09:24:56;14.38;;;5.40;;
22851;SDS011;11592;45.460;9.240;2023-02-02T09:27:23;16.10;;;9.27;;
22851;SDS011;11592;45.460;9.240;2023-02-02T09:29:50;10.45;;;5.78;;
22851;SDS011;11592;45.460;9.240;2023-02-02T09:32:18;11.60;;;5.28;;
22851;SDS011;11592;45.460;9.240;2023-02-02T09:34:44;13.20;;;5.80;;
22851;SDS011;11592;45.460;9.240;2023-02-02T09:37:11;15.90;;;5.00;;
22851;SDS011;11592;45.460;9.240;2023-02-02T09:39:38;14.85;;;5.38;;
22851;SDS011;11592;45.460;9.240;2023-02-02T09:42:47;16.92;;;5.43;;
22851;SDS011;11592;45.460;9.240;2023-02-02T09:45:29;17.85;;;6.18;;
22851;SDS011;11592;45.460;9.240;2023-02-02T09:50:38;13.85;;;5.43;;
22851;SDS011;11592;45.460;9.240;2023-02-02T09:55:50;12.25;;;5.80;;
22851;SDS011;11592;45.460;9.240;2023-02-02T09:58:40;10.32;;;5.50;;
22851;SDS011;11592;45.460;9.240;2023-02-02T10:01:16;16.33;;;6.15;;
22851;SDS011;11592;45.460;9.240;2023-02-02T10:04:03;11.80;;;6.15;;
22851;SDS011;11592;45.460;9.240;2023-02-02T10:06:40;11.55;;;5.75;;
22851;SDS011;11592;45.460;9.240;2023-02-02T10:14:45;9.25;;;4.60;;
22851;SDS011;11592;45.460;9.240;2023-02-02T10:23:15;13.73;;;4.60;;
22851;SDS011;11592;45.460;9.240;2023-02-02T10:26:30;10.15;;;4.25;;
22851;SDS011;11592;45.460;9.240;2023-02-02T10:46:10;6.13;;;3.80;;
22851;SDS011;11592;45.460;9.240;2023-02-02T10:48:50;9.00;;;3.78;;
22851;SDS011;11592;45.460;9.240;2023-02-02T10:51:27;8.63;;;3.88;;
22851;SDS011;11592;45.460;9.240;2023-02-02T10:53:56;8.20;;;3.45;;
22851;SDS011;11592;45.460;9.240;2023-02-02T10:56:35;8.30;;;3.17;;
22851;SDS011;11592;45.460;9.240;2023-02-02T10:59:12;9.52;;;3.30;;
22851;SDS011;11592;45.460;9.240;2023-02-02T11:01:44;6.10;;;2.92;;
22851;SDS011;11592;45.460;9.240;2023-02-02T11:04:11;5.25;;;2.90;;
22851;SDS011;11592;45.460;9.240;2023-02-02T11:06:56;6.25;;;2.63;;
22851;SDS011;11592;45.460;9.240;2023-02-02T11:09:27;5.72;;;2.60;;
22851;SDS011;11592;45.460;9.240;2023-02-02T11:12:05;3.85;;;2.03;;
22851;SDS011;11592;45.460;9.240;2023-02-02T11:14:46;4.15;;;2.47;;
22851;SDS011;11592;45.460;9.240;2023-02-02T11:17:21;9.43;;;2.95;;
22851;SDS011;11592;45.460;9.240;2023-02-02T11:19:49;3.42;;;2.00;;
22851;SDS011;11592;45.460;9.240;2023-02-02T11:22:24;7.30;;;2.30;;
22851;SDS011;11592;45.460;9.240;2023-02-02T11:24:58;8.48;;;2.45;;
22851;SDS011;11592;45.460;9.240;2023-02-02T11:28:00;6.18;;;2.13;;
22851;SDS011;11592;45.460;9.240;2023-02-02T11:32:51;4.45;;;2.38;;
22851;SDS011;11592;45.460;9.240;2023-02-02T11:40:40;3.78;;;2.22;;
22851;SDS011;11592;45.460;9.240;2023-02-02T11:46:23;4.80;;;2.60;;
22851;SDS011;11592;45.460;9.240;2023-02-02T11:49:04;3.67;;;2.30;;
22851;SDS011;11592;45.460;9.240;2023-02-02T11:51:41;3.97;;;2.20;;
22851;SDS011;11592;45.460;9.240;2023-02-02T11:54:14;6.78;;;2.25;;
22851;SDS011;11592;45.460;9.240;2023-02-02T11:56:47;10.45;;;2.40;;
22851;SDS011;11592;45.460;9.240;2023-02-02T11:59:27;3.22;;;1.98;;
22851;SDS011;11592;45.460;9.240;2023-02-02T12:04:50;3.53;;;2.00;;
22851;SDS011;11592;45.460;9.240;2023-02-02T12:07:29;3.55;;;2.13;;
22851;SDS011;11592;45.460;9.240;2023-02-02T12:10:03;5.40;;;2.13;;
22851;SDS011;11592;45.460;9.240;2023-02-02T12:18:59;4.90;;;2.67;;
22851;SDS011;11592;45.460;9.240;2023-02-02T12:26:33;4.75;;;2.60;;
22851;SDS011;11592;45.460;9.240;2023-02-02T12:31:59;11.27;;;3.28;;
22851;SDS011;11592;45.460;9.240;2023-02-02T12:40:48;5.55;;;3.63;;
22851;SDS011;11592;45.460;9.240;2023-02-02T12:43:37;9.07;;;3.50;;
22851;SDS011;11592;45.460;9.240;2023-02-02T12:54:23;6.85;;;2.90;;
22851;SDS011;11592;45.460;9.240;2023-02-02T13:08:34;8.33;;;3.27;;
22851;SDS011;11592;45.460;9.240;2023-02-02T13:11:11;6.47;;;3.17;;
22851;SDS011;11592;45.460;9.240;2023-02-02T13:14:07;7.20;;;3.90;;
22851;SDS011;11592;45.460;9.240;2023-02-02T13:16:48;5.38;;;3.20;;
22851;SDS011;11592;45.460;9.240;2023-02-02T13:22:11;4.80;;;3.65;;
22851;SDS011;11592;45.460;9.240;2023-02-02T13:24:42;6.15;;;3.30;;
22851;SDS011;11592;45.460;9.240;2023-02-02T13:27:14;7.68;;;3.00;;
22851;SDS011;11592;45.460;9.240;2023-02-02T13:29:51;5.82;;;2.80;;
22851;SDS011;11592;45.460;9.240;2023-02-02T13:37:52;6.53;;;3.33;;
22851;SDS011;11592;45.460;9.240;2023-02-02T13:40:31;4.97;;;3.30;;
22851;SDS011;11592;45.460;9.240;2023-02-02T13:49:07;6.97;;;3.53;;
22851;SDS011;11592;45.460;9.240;2023-02-02T13:54:45;6.70;;;2.97;;
22851;SDS011;11592;45.460;9.240;2023-02-02T14:05:27;10.20;;;4.63;;
22851;SDS011;11592;45.460;9.240;2023-02-02T14:07:59;10.77;;;4.30;;
22851;SDS011;11592;45.460;9.240;2023-02-02T14:13:19;6.03;;;3.40;;
22851;SDS011;11592;45.460;9.240;2023-02-02T14:16:20;7.15;;;3.65;;
22851;SDS011;11592;45.460;9.240;2023-02-02T14:18:57;6.15;;;3.65;;
22851;SDS011;11592;45.460;9.240;2023-02-02T14:32:17;7.82;;;4.30;;
22851;SDS011;11592;45.460;9.240;2023-02-02T14:34:53;8.07;;;3.90;;
22851;SDS011;11592;45.460;9.240;2023-02-02T14:37:54;10.55;;;4.10;;
22851;SDS011;11592;45.460;9.240;2023-02-02T14:48:40;14.63;;;5.22;;
22851;SDS011;11592;45.460;9.240;2023-02-02T14:51:21;12.45;;;5.75;;
22851;SDS011;11592;45.460;9.240;2023-02-02T14:53:58;11.73;;;5.78;;
22851;SDS011;11592;45.460;9.240;2023-02-02T14:56:38;10.75;;;5.68;;
22851;SDS011;11592;45.460;9.240;2023-02-02T14:59:11;12.25;;;6.35;;
22851;SDS011;11592;45.460;9.240;2023-02-02T15:04:48;13.10;;;6.07;;
22851;SDS011;11592;45.460;9.240;2023-02-02T15:09:48;13.43;;;5.80;;
22851;SDS011;11592;45.460;9.240;2023-02-02T15:20:29;16.27;;;6.97;;
22851;SDS011;11592;45.460;9.240;2023-02-02T15:28:42;20.80;;;8.27;;
22851;SDS011;11592;45.460;9.240;2023-02-02T15:31:39;23.08;;;8.07;;
22851;SDS011;11592;45.460;9.240;2023-02-02T15:34:15;22.33;;;9.30;;
22851;SDS011;11592;45.460;9.240;2023-02-02T15:36:54;22.83;;;9.82;;
22851;SDS011;11592;45.460;9.240;2023-02-02T15:41:54;28.02;;;9.68;;
22851;SDS011;11592;45.460;9.240;2023-02-02T15:44:42;22.73;;;10.10;;
22851;SDS011;11592;45.460;9.240;2023-02-02T15:47:15;23.95;;;10.55;;
22851;SDS011;11592;45.460;9.240;2023-02-02T15:49:45;28.15;;;11.48;;
22851;SDS011;11592;45.460;9.240;2023-02-02T15:52:13;20.27;;;10.00;;
22851;SDS011;11592;45.460;9.240;2023-02-02T15:54:50;26.95;;;11.60;;
22851;SDS011;11592;45.460;9.240;2023-02-02T15:57:36;25.58;;;10.07;;
22851;SDS011;11592;45.460;9.240;2023-02-02T16:02:53;28.48;;;12.20;;
22851;SDS011;11592;45.460;9.240;2023-02-02T16:07:57;26.20;;;10.90;;
22851;SDS011;11592;45.460;9.240;2023-02-02T16:10:32;26.17;;;10.73;;
22851;SDS011;11592;45.460;9.240;2023-02-02T16:13:00;25.90;;;10.73;;
22851;SDS011;11592;45.460;9.240;2023-02-02T16:15:28;26.92;;;11.18;;
22851;SDS011;11592;45.460;9.240;2023-02-02T16:18:04;25.60;;;11.32;;
22851;SDS011;11592;45.460;9.240;2023-02-02T16:20:38;28.70;;;11.80;;
22851;SDS011;11592;45.460;9.240;2023-02-02T16:23:09;26.80;;;11.45;;
22851;SDS011;11592;45.460;9.240;2023-02-02T16:25:46;26.35;;;11.45;;
22851;SDS011;11592;45.460;9.240;2023-02-02T16:28:16;29.10;;;11.83;;
22851;SDS011;11592;45.460;9.240;2023-02-02T16:30:46;23.80;;;11.32;;
22851;SDS011;11592;45.460;9.240;2023-02-02T16:35:56;25.63;;;10.88;;
22851;SDS011;11592;45.460;9.240;2023-02-02T16:38:32;28.63;;;11.00;;
22851;SDS011;11592;45.460;9.240;2023-02-02T16:41:02;26.90;;;11.18;;
22851;SDS011;11592;45.460;9.240;2023-02-02T16:43:32;26.70;;;11.13;;
22851;SDS011;11592;45.460;9.240;2023-02-02T16:49:06;27.55;;;11.15;;
22851;SDS011;11592;45.460;9.240;2023-02-02T16:51:42;28.55;;;11.38;;
22851;SDS011;11592;45.460;9.240;2023-02-02T16:54:12;25.33;;;10.55;;
22851;SDS011;11592;45.460;9.240;2023-02-02T16:56:58;27.15;;;10.13;;
22851;SDS011;11592;45.460;9.240;2023-02-02T16:59:27;28.63;;;10.35;;
22851;SDS011;11592;45.460;9.240;2023-02-02T17:02:03;31.65;;;11.15;;
22851;SDS011;11592;45.460;9.240;2023-02-02T17:04:42;24.65;;;10.40;;
22851;SDS011;11592;45.460;9.240;2023-02-02T17:07:14;24.88;;;11.23;;
22851;SDS011;11592;45.460;9.240;2023-02-02T17:09:43;25.23;;;9.88;;
22851;SDS011;11592;45.460;9.240;2023-02-02T17:14:59;23.50;;;9.80;;
22851;SDS011;11592;45.460;9.240;2023-02-02T17:17:50;26.80;;;10.80;;
22851;SDS011;11592;45.460;9.240;2023-02-02T17:20:18;26.85;;;10.88;;
22851;SDS011;11592;45.460;9.240;2023-02-02T17:22:46;29.83;;;10.20;;
22851;SDS011;11592;45.460;9.240;2023-02-02T17:25:24;24.77;;;9.55;;
22851;SDS011;11592;45.460;9.240;2023-02-02T17:27:53;26.95;;;10.30;;
22851;SDS011;11592;45.460;9.240;2023-02-02T17:30:21;29.80;;;11.32;;
22851;SDS011;11592;45.460;9.240;2023-02-02T17:32:48;25.60;;;10.80;;
22851;SDS011;11592;45.460;9.240;2023-02-02T17:35:15;32.20;;;11.45;;
22851;SDS011;11592;45.460;9.240;2023-02-02T17:37:44;39.10;;;12.38;;
22851;SDS011;11592;45.460;9.240;2023-02-02T17:40:15;31.23;;;11.73;;
22851;SDS011;11592;45.460;9.240;2023-02-02T17:42:43;26.42;;;11.32;;
22851;SDS011;11592;45.460;9.240;2023-02-02T17:47:43;36.60;;;13.00;;
22851;SDS011;11592;45.460;9.240;2023-02-02T17:50:10;25.98;;;12.63;;
22851;SDS011;11592;45.460;9.240;2023-02-02T17:52:37;33.28;;;12.63;;
22851;SDS011;11592;45.460;9.240;2023-02-02T17:55:09;32.47;;;13.00;;
22851;SDS011;11592;45.460;9.240;2023-02-02T17:57:38;29.52;;;12.93;;
22851;SDS011;11592;45.460;9.240;2023-02-02T18:00:05;35.80;;;13.52;;
22851;SDS011;11592;45.460;9.240;2023-02-02T18:02:33;35.92;;;13.38;;
22851;SDS011;11592;45.460;9.240;2023-02-02T18:05:00;30.00;;;12.93;;
22851;SDS011;11592;45.460;9.240;2023-02-02T18:07:28;33.13;;;13.25;;
22851;SDS011;11592;45.460;9.240;2023-02-02T18:09:54;34.75;;;12.95;;
22851;SDS011;11592;45.460;9.240;2023-02-02T18:12:21;33.17;;;12.30;;
22851;SDS011;11592;45.460;9.240;2023-02-02T18:14:48;32.42;;;11.82;;
22851;SDS011;11592;45.460;9.240;2023-02-02T18:17:15;31.45;;;13.25;;